Time;durP1;ratioP1;P1;durP2;ratioP2;P2;SDS_P1;SDS_P2;PMS_P1;PMS_P2;Temp;Humidity;BMP_temperature;BMP_pressure;BME280_temperature;BME280_humidity;BME280_pressure;Samples;Min_cycle;Max_cycle;Signal;HPM_P1;HPM_P2
2022/02/13 00:00:13;;;;;;;51.17;46.60;;;;;;;;;;4961864;29;20035;-81
2022/02/13 00:02:38;;;;;;;;;;;;;;;;;;4979836;28;20023;-81
2022/02/13 00:05:04;;;;;;;50.40;46.05;;;;;;;;;;4959026;29;19910;-81
2022/02/13 00:07:30;;;;;;;52.42;47.22;;;;;;;;;;4949196;28;20029;-82
2022/02/13 00:09:55;;;;;;;51.08;46.17;;;;;;;;;;4971737;28;20018;-81
2022/02/13 00:12:20;;;;;;;52.33;47.33;;;;;;;;;;4967058;28;20035;-81
2022/02/13 00:14:46;;;;;;;50.70;46.10;;;;;;;;;;4956357;28;20082;-81
2022/02/13 00:17:11;;;;;;;51.20;46.30;;;;;;;;;;4960502;29;20047;-81
2022/02/13 00:19:36;;;;;;;51.53;47.00;;;;;;;;;;4959425;28;20031;-81
2022/02/13 00:22:02;;;;;;;50.73;46.20;;;;;;;;;;4959473;28;20055;-79
2022/02/13 00:24:27;;;;;;;51.50;46.85;;;;;;;;;;4957170;28;20027;-81
2022/02/13 00:26:53;;;;;;;52.37;47.43;;;;;;;;;;4965553;29;20066;-81
2022/02/13 00:29:18;;;;;;;51.70;46.90;;;;;;;;;;4964442;28;20042;-81
2022/02/13 00:31:43;;;;;;;55.20;49.47;;;;;;;;;;4979293;28;20023;-84
2022/02/13 00:34:09;;;;;;;51.37;46.67;;;;;;;;;;4959862;29;20023;-81
2022/02/13 00:36:34;;;;;;;50.50;46.17;;;;;;;;;;4965044;28;20333;-83
2022/02/13 00:39:00;;;;;;;51.73;46.83;;;;;;;;;;4969229;29;20120;-82
2022/02/13 00:41:25;;;;;;;51.60;46.73;;;;;;;;;;4964311;29;20520;-85
2022/02/13 00:43:51;;;;;;;51.75;47.05;;;;;;;;;;4973424;28;20037;-82
2022/02/13 00:46:16;;;;;;;50.73;46.37;;;;;;;;;;4968688;28;20028;-83
2022/02/13 00:48:41;;;;;;;51.07;46.53;;;;;;;;;;4958985;28;20063;-83
2022/02/13 00:51:06;;;;;;;52.83;47.70;;;;;;;;;;4974057;28;20086;-82
2022/02/13 00:53:32;;;;;;;52.07;46.97;;;;;;;;;;4956712;28;20027;-83
2022/02/13 00:55:57;;;;;;;53.47;48.23;;;;;;;;;;4953807;29;20087;-84
2022/02/13 00:58:25;;;;;;;52.87;47.80;;;;;;;;;;4945734;29;20024;-82
2022/02/13 01:00:51;;;;;;;50.63;46.00;;;;;;;;;;4961817;28;20117;-82
2022/02/13 01:03:17;;;;;;;;;;;;;;;;;;4978497;28;20023;-79
2022/02/13 01:05:42;;;;;;;51.47;46.25;;;;;;;;;;4965633;29;19917;-81
2022/02/13 01:08:07;;;;;;;50.33;46.13;;;;;;;;;;4980283;28;20023;-80
2022/02/13 01:10:32;;;;;;;51.53;46.73;;;;;;;;;;4982648;28;20053;-80
2022/02/13 01:12:58;;;;;;;53.50;48.10;;;;;;;;;;4978594;28;20259;-80
2022/02/13 01:15:25;;;;;;;52.40;47.53;;;;;;;;;;4979264;28;20111;-80
2022/02/13 01:17:50;;;;;;;51.03;46.58;;;;;;;;;;4961741;29;20074;-81
2022/02/13 01:20:15;;;;;;;51.73;46.87;;;;;;;;;;4954858;28;20027;-79
2022/02/13 01:22:40;;;;;;;61.03;51.17;;;;;;;;;;4974233;28;20424;-77
2022/02/13 01:25:06;;;;;;;50.63;46.30;;;;;;;;;;4954305;28;20027;-81
2022/02/13 01:27:31;;;;;;;51.87;47.17;;;;;;;;;;4962005;28;20031;-78
2022/02/13 01:29:56;;;;;;;52.00;46.93;;;;;;;;;;4964448;28;20607;-78
2022/02/13 01:32:21;;;;;;;53.20;47.77;;;;;;;;;;4965848;28;20034;-78
2022/02/13 01:34:47;;;;;;;51.20;46.63;;;;;;;;;;4956091;28;20034;-80
2022/02/13 01:37:12;;;;;;;52.27;47.27;;;;;;;;;;4973544;28;20082;-78
2022/02/13 01:39:38;;;;;;;52.77;47.70;;;;;;;;;;4975545;28;20019;-77
2022/02/13 01:42:04;;;;;;;52.88;47.85;;;;;;;;;;4960948;28;20023;-79
2022/02/13 01:44:33;;;;;;;52.63;47.67;;;;;;;;;;4973053;28;20034;-79
2022/02/13 01:47:01;;;;;;;51.83;47.22;;;;;;;;;;4951339;29;20028;-79
2022/02/13 01:49:26;;;;;;;51.75;47.17;;;;;;;;;;4957931;28;20090;-79
2022/02/13 01:51:54;;;;;;;54.20;48.77;;;;;;;;;;4959700;29;20035;-78
2022/02/13 01:54:19;;;;;;;51.95;46.78;;;;;;;;;;4954769;28;20114;-79
2022/02/13 01:56:45;;;;;;;50.80;46.30;;;;;;;;;;4972154;28;20695;-80
2022/02/13 01:59:10;;;;;;;52.00;46.90;;;;;;;;;;4955880;28;20390;-78
2022/02/13 02:01:36;;;;;;;51.67;47.00;;;;;;;;;;4958481;28;20020;-80
2022/02/13 02:04:01;;;;;;;51.57;47.03;;;;;;;;;;4960846;28;20054;-79
2022/02/13 02:06:26;;;;;;;52.13;47.17;;;;;;;;;;4960828;29;20098;-80
2022/02/13 02:08:51;;;;;;;51.13;46.47;;;;;;;;;;4965103;29;20020;-82
2022/02/13 02:11:17;;;;;;;51.47;46.60;;;;;;;;;;4980222;28;20095;-80
2022/02/13 02:13:42;;;;;;;51.10;46.60;;;;;;;;;;4959429;28;20054;-79
2022/02/13 02:16:08;;;;;;;51.00;46.53;;;;;;;;;;4962028;28;20564;-79
2022/02/13 02:18:33;;;;;;;51.87;47.10;;;;;;;;;;4972965;28;20478;-80
2022/02/13 02:21:02;;;;;;;50.50;46.10;;;;;;;;;;4978727;28;20342;-79
2022/02/13 02:23:31;;;;;;;52.33;47.47;;;;;;;;;;4973259;28;20054;-81
2022/02/13 02:25:57;;;;;;;53.55;48.10;;;;;;;;;;4958203;28;20032;-80
2022/02/13 02:28:22;;;;;;;51.63;46.93;;;;;;;;;;4989544;28;20038;-77
2022/02/13 02:30:47;;;;;;;52.37;47.50;;;;;;;;;;4994901;28;20027;-79
2022/02/13 02:33:13;;;;;;;52.00;47.23;;;;;;;;;;4993372;28;20015;-79
2022/02/13 02:35:39;;;;;;;50.13;46.00;;;;;;;;;;4994814;28;20019;-79
2022/02/13 02:38:04;;;;;;;51.17;46.67;;;;;;;;;;4996708;28;20026;-80
2022/02/13 02:40:29;;;;;;;51.27;46.77;;;;;;;;;;4979148;28;20053;-78
2022/02/13 02:42:55;;;;;;;55.87;49.90;;;;;;;;;;4989713;28;20165;-78
2022/02/13 02:45:20;;;;;;;51.90;47.03;;;;;;;;;;4973549;28;20008;-78
2022/02/13 02:47:46;;;;;;;52.20;47.30;;;;;;;;;;4985034;28;20103;-79
2022/02/13 02:50:12;;;;;;;51.87;46.90;;;;;;;;;;4975944;29;20019;-77
2022/02/13 02:52:37;;;;;;;63.50;51.45;;;;;;;;;;4988495;28;20556;-79
2022/02/13 02:55:02;;;;;;;50.63;46.07;;;;;;;;;;4969664;29;20035;-82
2022/02/13 02:57:28;;;;;;;52.43;47.47;;;;;;;;;;4961457;28;20075;-79
2022/02/13 02:59:53;;;;;;;51.83;47.17;;;;;;;;;;4963191;29;20026;-80
2022/02/13 03:02:18;;;;;;;53.00;47.87;;;;;;;;;;4987306;28;20046;-78
2022/02/13 03:04:43;;;;;;;52.07;47.17;;;;;;;;;;4969175;28;20038;-76
2022/02/13 03:07:09;;;;;;;52.53;47.53;;;;;;;;;;4972324;29;20033;-79
2022/02/13 03:09:34;;;;;;;50.90;46.50;;;;;;;;;;4965002;29;20464;-80
2022/02/13 03:11:59;;;;;;;52.50;47.53;;;;;;;;;;4977751;28;20023;-77
2022/02/13 03:14:26;;;;;;;50.87;46.43;;;;;;;;;;4957814;28;20035;-79
2022/02/13 03:16:51;;;;;;;52.00;47.28;;;;;;;;;;4958496;28;20444;-80
2022/02/13 03:19:16;;;;;;;52.07;47.10;;;;;;;;;;4951241;29;20077;-81
2022/02/13 03:21:42;;;;;;;54.97;49.17;;;;;;;;;;4957355;29;20027;-79
2022/02/13 03:24:08;;;;;;;50.10;46.00;;;;;;;;;;4972233;28;20027;-80
2022/02/13 03:26:33;;;;;;;53.92;48.50;;;;;;;;;;4957435;29;20658;-79
2022/02/13 03:28:58;;;;;;;54.03;48.47;;;;;;;;;;4963495;28;20035;-78
2022/02/13 03:31:24;;;;;;;52.43;47.37;;;;;;;;;;4951139;29;20075;-78
2022/02/13 03:33:49;;;;;;;51.17;46.73;;;;;;;;;;4969068;28;20031;-79
2022/02/13 03:36:14;;;;;;;52.10;47.40;;;;;;;;;;4958304;29;20098;-79
2022/02/13 03:38:39;;;;;;;53.80;48.33;;;;;;;;;;4973506;28;20118;-78
2022/02/13 03:41:04;;;;;;;51.60;46.97;;;;;;;;;;4967855;28;20028;-79
2022/02/13 03:43:30;;;;;;;52.97;47.87;;;;;;;;;;4961764;28;20446;-78
2022/02/13 03:45:55;;;;;;;51.60;46.83;;;;;;;;;;4958676;29;20069;-79
2022/02/13 03:48:20;;;;;;;53.17;47.63;;;;;;;;;;4971717;28;20109;-77
2022/02/13 03:50:46;;;;;;;52.57;47.77;;;;;;;;;;4962579;28;20508;-79
2022/02/13 03:53:11;;;;;;;52.83;47.77;;;;;;;;;;4954735;28;20023;-77
2022/02/13 03:55:36;;;;;;;50.63;46.13;;;;;;;;;;4971404;28;20019;-80
2022/02/13 03:58:02;;;;;;;52.07;47.03;;;;;;;;;;4959073;29;20024;-79
2022/02/13 04:00:27;;;;;;;52.87;47.77;;;;;;;;;;4974608;28;20023;-78
2022/02/13 04:02:55;;;;;;;53.23;47.97;;;;;;;;;;4972516;28;20023;-77
2022/02/13 04:05:20;;;;;;;51.38;46.85;;;;;;;;;;4971816;29;20011;-78
2022/02/13 04:07:46;;;;;;;50.87;46.43;;;;;;;;;;4977846;28;20019;-79
2022/02/13 04:10:13;;;;;;;54.73;48.90;;;;;;;;;;4955297;29;20027;-79
2022/02/13 04:12:38;;;;;;;55.25;49.55;;;;;;;;;;4965584;28;20556;-78
2022/02/13 04:15:04;;;;;;;51.27;46.77;;;;;;;;;;4959046;28;20027;-79
2022/02/13 04:17:29;;;;;;;52.47;47.33;;;;;;;;;;4972950;28;20024;-79
2022/02/13 04:19:54;;;;;;;53.07;48.00;;;;;;;;;;4965441;28;20064;-78
2022/02/13 04:22:20;;;;;;;52.60;47.47;;;;;;;;;;4970630;28;20110;-79
2022/02/13 04:24:45;;;;;;;52.83;47.47;;;;;;;;;;4960549;28;20043;-78
2022/02/13 04:27:10;;;;;;;50.20;46.03;;;;;;;;;;4966631;28;20019;-81
2022/02/13 04:29:36;;;;;;;53.37;48.13;;;;;;;;;;4974241;29;20022;-80
2022/02/13 04:32:01;;;;;;;52.63;47.50;;;;;;;;;;4989292;28;20019;-78
2022/02/13 04:34:26;;;;;;;50.90;46.53;;;;;;;;;;4974672;28;20058;-77
2022/02/13 04:36:52;;;;;;;50.17;46.10;;;;;;;;;;4974866;28;20008;-78
2022/02/13 04:39:17;;;;;;;50.53;46.27;;;;;;;;;;4978627;28;20058;-78
2022/02/13 04:41:42;;;;;;;52.47;47.53;;;;;;;;;;4983911;28;20091;-77
2022/02/13 04:44:07;;;;;;;49.83;45.80;;;;;;;;;;4986535;28;20039;-77
2022/02/13 04:46:33;;;;;;;53.22;47.70;;;;;;;;;;4974288;29;20007;-78
2022/02/13 04:48:58;;;;;;;52.43;47.47;;;;;;;;;;4980761;28;20050;-78
2022/02/13 04:53:52;;;;;;;51.95;47.20;;;;;;;;;;4974801;28;20415;-87
2022/02/13 04:56:18;;;;;;;50.27;45.77;;;;;;;;;;4993079;28;20022;-87
2022/02/13 04:58:43;;;;;;;50.60;46.10;;;;;;;;;;4993036;28;20392;-87
2022/02/13 05:01:11;;;;;;;49.87;45.77;;;;;;;;;;4977529;28;20111;-88
2022/02/13 05:03:40;;;;;;;50.25;45.88;;;;;;;;;;4949649;28;20050;-88
2022/02/13 05:06:08;;;;;;;48.92;45.08;;;;;;;;;;4969378;28;20027;-88
2022/02/13 05:08:33;;;;;;;50.33;46.25;;;;;;;;;;4958557;28;20027;-87
2022/02/13 05:10:58;;;;;;;51.00;46.60;;;;;;;;;;4957996;28;20451;-85
2022/02/13 05:13:23;;;;;;;51.00;46.63;;;;;;;;;;4957351;29;20035;-85
2022/02/13 05:15:49;;;;;;;50.60;46.50;;;;;;;;;;4957248;29;20123;-85
2022/02/13 05:18:14;;;;;;;50.73;46.40;;;;;;;;;;4957187;29;20114;-86
2022/02/13 05:20:39;;;;;;;49.67;45.70;;;;;;;;;;4979301;28;20023;-85
2022/02/13 05:23:05;;;;;;;51.17;46.60;;;;;;;;;;4975138;28;20019;-85
2022/02/13 05:25:31;;;;;;;49.78;45.72;;;;;;;;;;4978502;28;20023;-86
2022/02/13 05:27:56;;;;;;;50.90;46.77;;;;;;;;;;4995183;28;20011;-85
2022/02/13 05:30:32;;;;;;;50.93;46.63;;;;;;;;;;4977465;28;20046;-84
2022/02/13 05:33:03;;;;;;;52.45;47.40;;;;;;;;;;4990553;28;20031;-84
2022/02/13 05:35:29;;;;;;;50.30;46.20;;;;;;;;;;4989796;28;20016;-84
2022/02/13 05:37:54;;;;;;;50.40;46.30;;;;;;;;;;4993720;28;20038;-86
2022/02/13 05:40:20;;;;;;;51.73;47.23;;;;;;;;;;4974625;28;20095;-85
2022/02/13 05:49:13;;;;;;;49.85;45.92;;;;;;;;;;4967800;29;20087;-88
2022/02/13 05:51:47;;;;;;;51.83;47.05;;;;;;;;;;4974210;29;20022;-86
2022/02/13 05:54:18;;;;;;;50.45;46.20;;;;;;;;;;4991394;28;20223;-87
2022/02/13 05:56:46;;;;;;;50.85;46.53;;;;;;;;;;4993932;28;20050;-87
2022/02/13 05:59:15;;;;;;;50.42;46.00;;;;;;;;;;4992641;28;20016;-86
2022/02/13 06:01:41;;;;;;;51.35;46.78;;;;;;;;;;4987351;28;20416;-86
2022/02/13 06:04:09;;;;;;;50.03;45.72;;;;;;;;;;4982392;28;20042;-88
2022/02/13 06:06:34;;;;;;;50.22;46.13;;;;;;;;;;4977407;28;20028;-88
2022/02/13 06:09:02;;;;;;;50.90;46.57;;;;;;;;;;4975028;28;20024;-87
2022/02/13 06:11:27;;;;;;;51.08;46.38;;;;;;;;;;4958227;28;20023;-86
2022/02/13 06:13:53;;;;;;;52.00;47.37;;;;;;;;;;4971988;28;20040;-85
2022/02/13 06:16:21;;;;;;;51.63;47.20;;;;;;;;;;4963280;29;20055;-85
2022/02/13 06:18:46;;;;;;;52.10;47.47;;;;;;;;;;4990118;28;20198;-83
2022/02/13 06:21:12;;;;;;;50.73;46.33;;;;;;;;;;4976528;28;20024;-84
2022/02/13 06:23:37;;;;;;;51.07;46.77;;;;;;;;;;4991611;28;20043;-84
2022/02/13 06:26:02;;;;;;;50.63;46.50;;;;;;;;;;4980271;28;20082;-85
2022/02/13 06:28:28;;;;;;;50.97;46.13;;;;;;;;;;4978440;28;20070;-85
2022/02/13 06:30:54;;;;;;;50.50;46.25;;;;;;;;;;4957913;29;20078;-84
2022/02/13 06:33:19;;;;;;;49.40;45.37;;;;;;;;;;4958064;29;20130;-85
2022/02/13 06:35:44;;;;;;;50.50;46.10;;;;;;;;;;4982536;28;20121;-85
2022/02/13 06:38:11;;;;;;;50.97;46.23;;;;;;;;;;4987301;28;20047;-86
2022/02/13 06:40:36;;;;;;;;;;;;;;;;;;4992501;28;20035;-85
2022/02/13 06:43:01;;;;;;;52.63;47.72;;;;;;;;;;4974624;28;19910;-87
2022/02/13 06:45:26;;;;;;;51.00;46.37;;;;;;;;;;4992046;28;20033;-85
2022/02/13 06:47:52;;;;;;;51.80;47.13;;;;;;;;;;4993592;28;20087;-86
2022/02/13 06:50:18;;;;;;;51.57;47.07;;;;;;;;;;4995256;28;20039;-85
2022/02/13 06:52:46;;;;;;;57.92;49.80;;;;;;;;;;4995648;28;20261;-84
2022/02/13 06:55:11;;;;;;;53.05;48.10;;;;;;;;;;4979672;28;20047;-85
2022/02/13 06:57:50;;;;;;;51.33;46.77;;;;;;;;;;4996075;28;20007;-85
2022/02/13 07:00:18;;;;;;;50.83;46.63;;;;;;;;;;4996812;28;20562;-85
2022/02/13 07:02:46;;;;;;;53.95;48.78;;;;;;;;;;4995847;28;20035;-83
2022/02/13 07:05:12;;;;;;;50.47;46.40;;;;;;;;;;4980104;28;20035;-85
2022/02/13 07:07:37;;;;;;;52.30;47.70;;;;;;;;;;4996367;28;20022;-85
2022/02/13 07:10:12;;;;;;;51.80;47.40;;;;;;;;;;4979515;28;20265;-85
2022/02/13 07:12:39;;;;;;;53.75;48.50;;;;;;;;;;4970384;28;20023;-87
2022/02/13 07:15:08;;;;;;;52.67;47.47;;;;;;;;;;4975870;28;20082;-85
2022/02/13 07:17:36;;;;;;;56.53;50.70;;;;;;;;;;4974548;28;20057;-85
2022/02/13 07:20:06;;;;;;;50.47;46.17;;;;;;;;;;4984788;28;20394;-85
2022/02/13 07:22:32;;;;;;;51.78;47.22;;;;;;;;;;4962831;29;20031;-86
2022/02/13 07:24:57;;;;;;;51.63;46.97;;;;;;;;;;4976057;28;20054;-85
2022/02/13 07:27:22;;;;;;;52.40;47.33;;;;;;;;;;4963217;28;20047;-88
2022/02/13 07:29:47;;;;;;;51.53;46.93;;;;;;;;;;4977223;28;20046;-86
2022/02/13 07:32:13;;;;;;;51.77;47.27;;;;;;;;;;4977165;28;20027;-87
2022/02/13 07:34:38;;;;;;;51.63;47.37;;;;;;;;;;4958025;28;20031;-87
2022/02/13 07:37:04;;;;;;;51.53;47.13;;;;;;;;;;4958298;29;20016;-87
2022/02/13 07:52:22;;;;;;;;;;;;;;;;;;;;;
2022/02/13 07:54:51;;;;;;;52.67;47.88;;;;;;;;;;4958556;28;20034;-88
2022/02/13 07:57:16;;;;;;;52.30;47.60;;;;;;;;;;4982575;28;20015;-87
2022/02/13 07:59:48;;;;;;;50.80;46.53;;;;;;;;;;4988627;28;20053;-87
2022/02/13 08:02:13;;;;;;;51.83;47.42;;;;;;;;;;4989395;28;20011;-83
2022/02/13 08:04:41;;;;;;;51.67;47.17;;;;;;;;;;4988371;28;20032;-86
2022/02/13 08:07:09;;;;;;;54.25;49.03;;;;;;;;;;4989683;28;20019;-86
2022/02/13 08:09:35;;;;;;;53.60;48.67;;;;;;;;;;4973248;29;20030;-87
2022/02/13 08:12:00;;;;;;;52.53;47.87;;;;;;;;;;4972276;28;20019;-87
2022/02/13 08:14:26;;;;;;;52.70;48.10;;;;;;;;;;4969394;28;20027;-88
2022/02/13 08:16:51;;;;;;;54.57;49.10;;;;;;;;;;4984584;28;20058;-86
2022/02/13 08:19:16;;;;;;;53.30;48.60;;;;;;;;;;4963881;28;20527;-88
2022/02/13 08:21:42;;;;;;;52.77;48.07;;;;;;;;;;4986052;28;20003;-84
2022/02/13 08:24:07;;;;;;;53.23;48.37;;;;;;;;;;4969888;28;20055;-86
2022/02/13 08:26:32;;;;;;;53.57;48.57;;;;;;;;;;4968489;28;20011;-86
2022/02/13 08:28:57;;;;;;;55.07;49.77;;;;;;;;;;4985009;28;20020;-85
2022/02/13 08:31:22;;;;;;;53.93;48.47;;;;;;;;;;4974435;28;20027;-85
2022/02/13 08:33:48;;;;;;;53.63;48.57;;;;;;;;;;4973107;28;20055;-84
2022/02/13 08:36:13;;;;;;;54.33;49.40;;;;;;;;;;4995059;28;20035;-87
2022/02/13 08:38:42;;;;;;;55.03;49.90;;;;;;;;;;4983030;28;20070;-88
2022/02/13 08:41:07;;;;;;;57.42;51.35;;;;;;;;;;5002669;28;20015;-83
2022/02/13 08:46:30;;;;;;;54.80;49.70;;;;;;;;;;4970397;28;20105;-87
2022/02/13 08:49:09;;;;;;;54.87;49.80;;;;;;;;;;4976467;28;20372;-86
2022/02/13 08:51:34;;;;;;;55.85;50.17;;;;;;;;;;4966201;28;20030;-86
2022/02/13 08:54:00;;;;;;;55.33;50.23;;;;;;;;;;4980720;28;20487;-86
2022/02/13 08:56:26;;;;;;;;;;;;;;;;;;4967969;28;20043;-86
2022/02/13 08:58:55;;;;;;;55.42;50.22;;;;;;;;;;4965509;28;19934;-85
2022/02/13 09:08:22;;;;;;;;;;;;;;;;;;;;;
2022/02/13 09:10:51;;;;;;;54.80;49.70;;;;;;;;;;4965335;28;20125;-87
2022/02/13 09:13:22;;;;;;;54.40;49.15;;;;;;;;;;4954110;29;20034;-87
2022/02/13 09:16:02;;;;;;;55.42;50.03;;;;;;;;;;4977860;28;20043;-87
2022/02/13 09:25:13;;;;;;;57.03;51.08;;;;;;;;;;4943907;28;20047;-87
2022/02/13 09:30:46;;;;;;;67.75;54.92;;;;;;;;;;4901581;23;20058;-81
2022/02/13 09:33:12;;;;;;;55.47;49.92;;;;;;;;;;4961461;28;20046;-78
2022/02/13 09:35:37;;;;;;;54.80;49.60;;;;;;;;;;4958900;28;20059;-78
2022/02/13 09:38:02;;;;;;;55.67;50.07;;;;;;;;;;4959610;28;20043;-84
2022/02/13 09:40:33;;;;;;;52.73;48.03;;;;;;;;;;4965857;28;20027;-84
2022/02/13 09:43:02;;;;;;;58.28;52.25;;;;;;;;;;4964267;28;20185;-82
2022/02/13 09:45:28;;;;;;;54.58;49.30;;;;;;;;;;4957844;28;20047;-80
2022/02/13 09:47:53;;;;;;;54.15;49.08;;;;;;;;;;4958590;29;20062;-80
2022/02/13 09:50:19;;;;;;;55.77;50.03;;;;;;;;;;4955006;29;20027;-81
2022/02/13 09:52:46;;;;;;;57.53;51.47;;;;;;;;;;4955059;28;20034;-81
2022/02/13 09:55:11;;;;;;;70.68;56.65;;;;;;;;;;4955466;28;20036;-82
2022/02/13 10:00:20;;;;;;;55.58;50.17;;;;;;;;;;4952599;29;20031;-81
2022/02/13 10:02:45;;;;;;;59.47;52.97;;;;;;;;;;4960938;28;20019;-81
2022/02/13 10:05:13;;;;;;;54.33;49.33;;;;;;;;;;4960514;29;20023;-80
2022/02/13 10:07:39;;;;;;;59.80;53.15;;;;;;;;;;4961231;29;20027;-81
2022/02/13 10:10:05;;;;;;;54.40;49.47;;;;;;;;;;4964713;29;20061;-81
2022/02/13 10:12:40;;;;;;;55.40;49.95;;;;;;;;;;4956157;28;20032;-80
2022/02/13 10:15:25;;;;;;;54.05;49.03;;;;;;;;;;4954303;28;20548;-79
2022/02/13 10:17:54;;;;;;;55.13;49.90;;;;;;;;;;4952849;29;20023;-82
2022/02/13 10:20:30;;;;;;;55.30;50.08;;;;;;;;;;4956737;29;20552;-82
2022/02/13 10:22:56;;;;;;;56.58;50.75;;;;;;;;;;4952190;28;20031;-82
2022/02/13 10:25:21;;;;;;;55.80;50.30;;;;;;;;;;4962132;28;20030;-83
2022/02/13 10:27:47;;;;;;;55.93;50.13;;;;;;;;;;4961954;28;20019;-83
2022/02/13 10:30:13;;;;;;;54.90;49.70;;;;;;;;;;4960823;29;20023;-82
2022/02/13 10:32:39;;;;;;;58.80;52.50;;;;;;;;;;4959143;28;20066;-81
2022/02/13 10:35:04;;;;;;;;;;;;;;;;;;4956745;28;20019;-83
2022/02/13 10:37:42;;;;;;;55.60;50.20;;;;;;;;;;4959718;28;19953;-82
2022/02/13 10:40:08;;;;;;;53.67;48.80;;;;;;;;;;4969004;28;20274;-82
2022/02/13 10:42:33;;;;;;;58.28;51.90;;;;;;;;;;4952278;28;20363;-83
2022/02/13 10:45:21;;;;;;;54.20;49.20;;;;;;;;;;4963335;29;20135;-82
2022/02/13 10:47:47;;;;;;;52.38;47.88;;;;;;;;;;4974738;28;20019;-82
2022/02/13 10:50:17;;;;;;;55.55;50.40;;;;;;;;;;4962737;29;20222;-84
2022/02/13 10:52:44;;;;;;;59.28;53.05;;;;;;;;;;4976533;28;20085;-81
2022/02/13 10:55:11;;;;;;;55.20;49.85;;;;;;;;;;4954711;29;20019;-82
2022/02/13 10:57:37;;;;;;;60.15;53.65;;;;;;;;;;4951237;28;20027;-76
2022/02/13 11:00:03;;;;;;;57.92;51.90;;;;;;;;;;4952121;28;20027;-76
2022/02/13 11:02:29;;;;;;;57.20;51.35;;;;;;;;;;4953199;29;20023;-77
2022/02/13 11:04:54;;;;;;;54.67;49.65;;;;;;;;;;4950698;28;20042;-75
2022/02/13 11:07:19;;;;;;;55.60;50.30;;;;;;;;;;4959403;28;20027;-75
2022/02/13 11:09:45;;;;;;;57.10;51.30;;;;;;;;;;4974612;28;20114;-76
2022/02/13 11:12:10;;;;;;;59.40;53.00;;;;;;;;;;4955689;29;20727;-76
2022/02/13 11:14:40;;;;;;;57.07;51.37;;;;;;;;;;4953309;28;20380;-78
2022/02/13 11:17:06;;;;;;;56.97;51.28;;;;;;;;;;4975544;23;20511;-86
2022/02/13 11:19:33;;;;;;;55.13;49.95;;;;;;;;;;4985822;28;20029;-88
2022/02/13 11:21:58;;;;;;;59.13;52.80;;;;;;;;;;5002001;28;20041;-83
2022/02/13 11:24:27;;;;;;;55.20;50.00;;;;;;;;;;4979030;28;20034;-84
2022/02/13 11:26:53;;;;;;;57.88;51.90;;;;;;;;;;4979673;28;20186;-82
2022/02/13 11:29:18;;;;;;;55.43;50.13;;;;;;;;;;4980432;28;20501;-81
2022/02/13 11:31:50;;;;;;;55.77;50.37;;;;;;;;;;4999249;28;20026;-84
2022/02/13 11:34:35;;;;;;;56.55;50.83;;;;;;;;;;4990117;28;20032;-79
2022/02/13 11:37:19;;;;;;;58.95;52.85;;;;;;;;;;4977624;28;20709;-77
2022/02/13 11:39:50;;;;;;;56.63;50.83;;;;;;;;;;4988187;28;20105;-78
2022/02/13 11:42:19;;;;;;;55.95;50.40;;;;;;;;;;4975963;28;20030;-79
2022/02/13 11:44:50;;;;;;;54.80;49.75;;;;;;;;;;4993606;28;20322;-80
2022/02/13 11:47:17;;;;;;;57.53;51.75;;;;;;;;;;4992503;28;20408;-77
2022/02/13 11:50:00;;;;;;;57.63;51.67;;;;;;;;;;4973154;28;20029;-78
2022/02/13 11:52:27;;;;;;;56.55;51.05;;;;;;;;;;4991304;28;20133;-78
2022/02/13 11:54:56;;;;;;;56.90;51.20;;;;;;;;;;4973955;28;20038;-78
2022/02/13 11:57:21;;;;;;;59.47;53.22;;;;;;;;;;4973356;28;20026;-79
2022/02/13 12:00:06;;;;;;;58.63;52.60;;;;;;;;;;4988533;28;20034;-79
2022/02/13 12:02:35;;;;;;;56.72;51.20;;;;;;;;;;4976035;28;20134;-79
2022/02/13 12:05:06;;;;;;;59.47;53.17;;;;;;;;;;4974631;28;20027;-77
2022/02/13 12:07:34;;;;;;;59.03;52.67;;;;;;;;;;4987394;28;20022;-78
2022/02/13 12:09:59;;;;;;;56.03;50.30;;;;;;;;;;4974030;28;20042;-81
2022/02/13 12:12:25;;;;;;;58.30;52.43;;;;;;;;;;4977151;28;20030;-78
2022/02/13 12:14:50;;;;;;;56.63;51.17;;;;;;;;;;4992172;28;20496;-78
2022/02/13 12:17:23;;;;;;;56.97;51.10;;;;;;;;;;4991528;28;20026;-79
2022/02/13 12:19:58;;;;;;;56.65;51.08;;;;;;;;;;4991422;28;20071;-79
2022/02/13 12:22:23;;;;;;;56.22;50.72;;;;;;;;;;4978137;28;20094;-79
2022/02/13 12:24:51;;;;;;;56.23;50.83;;;;;;;;;;4975985;28;20055;-79
2022/02/13 12:27:16;;;;;;;56.80;51.17;;;;;;;;;;4995011;28;20027;-78
2022/02/13 12:29:55;;;;;;;56.60;51.13;;;;;;;;;;4970656;28;20088;-79
2022/02/13 12:32:23;;;;;;;57.03;51.25;;;;;;;;;;4986410;28;20037;-78
2022/02/13 12:35:08;;;;;;;56.53;50.95;;;;;;;;;;4977528;28;20041;-81
2022/02/13 12:37:40;;;;;;;56.58;51.05;;;;;;;;;;4997510;28;20018;-78
2022/02/13 12:40:15;;;;;;;55.58;50.33;;;;;;;;;;4999741;28;20061;-78
2022/02/13 12:42:42;;;;;;;58.92;52.65;;;;;;;;;;4994917;28;20221;-78
2022/02/13 12:45:08;;;;;;;55.58;50.33;;;;;;;;;;4980325;28;20027;-78
2022/02/13 12:47:34;;;;;;;59.22;52.75;;;;;;;;;;4990892;28;20027;-78
2022/02/13 12:50:00;;;;;;;57.25;51.40;;;;;;;;;;4993170;28;20026;-78
2022/02/13 12:52:25;;;;;;;57.20;51.60;;;;;;;;;;4980102;28;20031;-80
2022/02/13 12:54:51;;;;;;;58.03;52.37;;;;;;;;;;4978673;28;20539;-80
2022/02/13 12:57:17;;;;;;;57.13;51.43;;;;;;;;;;4977323;28;20114;-79
2022/02/13 12:59:42;;;;;;;56.63;50.92;;;;;;;;;;4992957;28;20023;-79
2022/02/13 13:02:20;;;;;;;57.43;51.70;;;;;;;;;;4977700;28;20489;-79
2022/02/13 13:04:46;;;;;;;56.88;51.30;;;;;;;;;;4977053;28;20023;-79
2022/02/13 13:07:17;;;;;;;56.53;50.83;;;;;;;;;;4975609;28;20023;-77
2022/02/13 13:09:43;;;;;;;56.78;51.10;;;;;;;;;;4989543;28;20489;-79
2022/02/13 13:12:16;;;;;;;57.13;51.17;;;;;;;;;;4977306;28;20038;-78
2022/02/13 13:14:41;;;;;;;56.47;50.90;;;;;;;;;;4994211;28;20110;-78
2022/02/13 13:17:10;;;;;;;58.00;52.30;;;;;;;;;;4984760;28;20030;-82
2022/02/13 13:19:39;;;;;;;57.15;51.58;;;;;;;;;;4986924;28;20060;-80
2022/02/13 13:22:22;;;;;;;57.00;51.60;;;;;;;;;;4974450;28;20026;-79
2022/02/13 13:24:49;;;;;;;57.90;52.15;;;;;;;;;;4976015;28;20029;-78
2022/02/13 13:27:19;;;;;;;58.10;52.22;;;;;;;;;;4975632;28;20525;-78
2022/02/13 13:29:47;;;;;;;57.03;51.40;;;;;;;;;;4970946;28;20027;-79
2022/02/13 13:32:16;;;;;;;57.60;51.80;;;;;;;;;;4982036;28;20022;-79
2022/02/13 13:34:44;;;;;;;56.08;50.80;;;;;;;;;;4977192;28;20018;-79
2022/02/13 13:37:46;;;;;;;57.05;51.38;;;;;;;;;;4978676;28;20064;-80
2022/02/13 13:40:18;;;;;;;56.47;51.10;;;;;;;;;;4989981;28;20038;-80
2022/02/13 13:42:47;;;;;;;59.78;53.35;;;;;;;;;;4993656;28;20106;-79
2022/02/13 13:45:14;;;;;;;54.67;49.70;;;;;;;;;;4994804;28;20023;-80
2022/02/13 13:47:42;;;;;;;57.47;51.75;;;;;;;;;;4992779;28;20046;-79
2022/02/13 13:50:08;;;;;;;56.35;51.08;;;;;;;;;;5005793;28;20074;-78
2022/02/13 13:52:34;;;;;;;56.13;50.63;;;;;;;;;;5005849;28;20037;-78
2022/02/13 13:54:59;;;;;;;56.30;51.00;;;;;;;;;;4996482;28;20042;-79
2022/02/13 13:57:24;;;;;;;56.70;51.17;;;;;;;;;;5009885;28;20041;-79
2022/02/13 13:59:49;;;;;;;58.30;52.47;;;;;;;;;;4991813;28;20021;-79
2022/02/13 14:02:17;;;;;;;58.10;52.03;;;;;;;;;;4993101;28;20025;-79
2022/02/13 14:04:42;;;;;;;56.65;51.33;;;;;;;;;;4987094;28;20029;-77
2022/02/13 14:07:08;;;;;;;58.13;52.23;;;;;;;;;;4991616;28;20223;-80
2022/02/13 14:09:33;;;;;;;57.57;51.73;;;;;;;;;;4972331;28;20026;-79
2022/02/13 14:11:58;;;;;;;57.70;51.70;;;;;;;;;;4974629;28;20031;-79
2022/02/13 14:14:23;;;;;;;56.23;50.83;;;;;;;;;;4975525;28;20023;-80
2022/02/13 14:16:48;;;;;;;59.53;53.10;;;;;;;;;;4992470;28;20062;-80
2022/02/13 14:19:13;;;;;;;57.30;51.63;;;;;;;;;;4986113;28;20033;-78
2022/02/13 14:21:39;;;;;;;56.00;50.77;;;;;;;;;;4974226;28;20392;-78
2022/02/13 14:24:04;;;;;;;56.30;50.97;;;;;;;;;;4993762;28;20027;-80
2022/02/13 14:26:29;;;;;;;56.67;51.13;;;;;;;;;;4977550;28;20145;-80
2022/02/13 14:28:54;;;;;;;57.93;51.33;;;;;;;;;;4974439;28;20046;-80
2022/02/13 14:31:20;;;;;;;56.50;50.77;;;;;;;;;;4987426;28;20062;-80
2022/02/13 14:33:45;;;;;;;56.60;51.00;;;;;;;;;;4988196;28;20030;-79
2022/02/13 14:36:10;;;;;;;57.40;51.70;;;;;;;;;;4989622;28;20023;-80
2022/02/13 14:38:35;;;;;;;56.17;50.60;;;;;;;;;;4985218;28;20033;-79
2022/02/13 14:41:00;;;;;;;55.03;49.93;;;;;;;;;;4998878;28;20362;-78
2022/02/13 14:43:26;;;;;;;56.63;51.20;;;;;;;;;;4988988;28;20035;-78
2022/02/13 14:45:51;;;;;;;57.40;51.60;;;;;;;;;;4982692;28;20022;-81
2022/02/13 14:48:16;;;;;;;58.53;52.53;;;;;;;;;;4990338;28;20023;-79
2022/02/13 14:50:45;;;;;;;57.27;51.53;;;;;;;;;;4969088;28;20034;-80
2022/02/13 14:53:10;;;;;;;56.88;51.30;;;;;;;;;;4974834;28;20050;-80
2022/02/13 14:55:37;;;;;;;57.17;51.30;;;;;;;;;;4979106;28;20345;-81
2022/02/13 14:58:03;;;;;;;58.35;52.30;;;;;;;;;;4975565;28;20043;-79
2022/02/13 15:00:28;;;;;;;57.47;51.73;;;;;;;;;;4999483;28;20023;-78
2022/02/13 15:02:53;;;;;;;58.20;52.23;;;;;;;;;;5000261;28;20201;-79